createdAt,value
2022-09-11T00:00:07.486Z,15.23
2022-09-11T00:02:42.233Z,15.53
2022-09-11T00:05:12.245Z,15.46
2022-09-11T00:07:41.988Z,15.60
2022-09-11T00:10:12.610Z,15.37
2022-09-11T00:12:43.821Z,14.08
2022-09-11T00:15:14.101Z,13.76
2022-09-11T00:17:47.442Z,13.28
2022-09-11T00:20:17.533Z,13.30
2022-09-11T00:22:50.292Z,13.05
2022-09-11T00:25:20.272Z,12.92
2022-09-11T00:27:51.326Z,13.20
2022-09-11T00:30:22.075Z,12.72
2022-09-11T00:32:52.257Z,13.03
2022-09-11T00:35:25.770Z,13.35
2022-09-11T00:37:58.230Z,13.38
2022-09-11T00:40:28.668Z,13.32
2022-09-11T00:42:59.307Z,13.63
2022-09-11T00:45:30.188Z,13.58
2022-09-11T00:48:02.014Z,13.89
2022-09-11T00:50:35.826Z,14.02
2022-09-11T00:53:11.142Z,13.87
2022-09-11T00:55:48.895Z,13.91
2022-09-11T00:58:23.435Z,14.12
2022-09-11T01:00:57.185Z,14.16
2022-09-11T01:03:28.337Z,14.03
2022-09-11T01:06:00.120Z,13.85
2022-09-11T01:08:32.700Z,14.05
2022-09-11T01:11:26.041Z,12.96
2022-09-11T01:14:23.573Z,13.28
2022-09-11T01:17:02.820Z,13.61
2022-09-11T01:20:01.407Z,13.49
2022-09-11T01:23:04.042Z,13.78
2022-09-11T01:25:56.546Z,13.86
2022-09-11T01:28:47.759Z,13.77
2022-09-11T01:31:21.873Z,13.45
2022-09-11T01:34:25.185Z,13.44
2022-09-11T01:37:02.507Z,13.47
2022-09-11T01:39:42.766Z,13.55
2022-09-11T01:42:22.037Z,13.83
2022-09-11T01:44:56.180Z,13.58
2022-09-11T01:47:29.862Z,13.45
2022-09-11T01:50:11.139Z,13.54
2022-09-11T01:52:54.866Z,13.53
2022-09-11T01:55:31.394Z,13.45
2022-09-11T01:58:13.746Z,13.68
2022-09-11T02:00:50.911Z,13.15
2022-09-11T02:03:29.465Z,13.74
2022-09-11T02:06:08.950Z,13.64
2022-09-11T02:08:43.467Z,13.49
2022-09-11T02:11:16.042Z,12.95
2022-09-11T02:14:03.964Z,13.33
2022-09-11T02:16:46.517Z,13.61
2022-09-11T02:19:19.408Z,13.71
2022-09-11T02:21:52.365Z,13.58
2022-09-11T02:24:24.069Z,13.44
2022-09-11T02:26:59.616Z,13.25
2022-09-11T02:29:31.201Z,13.24
2022-09-11T02:32:02.440Z,13.22
2022-09-11T02:34:37.962Z,13.42
2022-09-11T02:37:27.346Z,13.21
2022-09-11T02:40:16.163Z,13.06
2022-09-11T02:42:55.348Z,12.96
2022-09-11T02:45:36.790Z,12.95
2022-09-11T02:48:42.235Z,12.99
2022-09-11T02:51:45.871Z,13.13
2022-09-11T02:54:54.719Z,13.05
2022-09-11T02:57:36.605Z,13.25
2022-09-11T03:00:09.615Z,13.03
2022-09-11T03:02:44.176Z,13.20
2022-09-11T03:05:14.663Z,13.29
2022-09-11T03:07:45.106Z,13.00
2022-09-11T03:10:15.242Z,12.56
2022-09-11T03:12:46.562Z,11.97
2022-09-11T03:15:18.436Z,11.50
2022-09-11T03:17:49.442Z,11.24
2022-09-11T03:20:20.455Z,11.13
2022-09-11T03:22:50.893Z,10.92
2022-09-11T03:25:21.924Z,10.95
2022-09-11T03:27:56.183Z,11.20
2022-09-11T03:30:25.860Z,11.57
2022-09-11T03:32:55.648Z,11.13
2022-09-11T03:35:27.642Z,11.42
2022-09-11T03:37:58.697Z,11.96
2022-09-11T03:40:29.410Z,12.01
2022-09-11T03:43:00.707Z,12.09
2022-09-11T03:45:30.811Z,12.32
2022-09-11T03:48:00.728Z,12.38
2022-09-11T03:50:31.240Z,12.23
2022-09-11T03:53:01.754Z,12.33
2022-09-11T03:55:36.207Z,12.41
2022-09-11T03:58:10.786Z,12.43
2022-09-11T04:00:45.355Z,12.45
2022-09-11T04:03:17.003Z,12.62
2022-09-11T04:06:07.284Z,12.52
2022-09-11T04:08:41.183Z,12.58
2022-09-11T04:11:13.739Z,12.61
2022-09-11T04:13:44.847Z,12.69
2022-09-11T04:16:21.902Z,12.59
2022-09-11T04:18:55.422Z,12.69
2022-09-11T04:21:28.499Z,12.78
2022-09-11T04:24:01.225Z,12.52
2022-09-11T04:26:34.467Z,12.61
2022-09-11T04:29:24.297Z,12.56
2022-09-11T04:31:57.364Z,12.61
2022-09-11T04:34:31.122Z,12.40
2022-09-11T04:37:02.071Z,12.38
2022-09-11T04:39:33.321Z,12.39
2022-09-11T04:42:05.913Z,12.12
2022-09-11T04:44:37.154Z,12.02
2022-09-11T04:47:07.753Z,11.99
2022-09-11T04:49:37.823Z,12.07
2022-09-11T04:52:08.471Z,11.97
2022-09-11T04:54:38.549Z,11.87
2022-09-11T04:57:11.779Z,11.87
2022-09-11T04:59:41.862Z,12.06
2022-09-11T05:02:16.184Z,12.34
2022-09-11T05:04:49.490Z,12.03
2022-09-11T05:07:20.107Z,11.83
2022-09-11T05:09:55.719Z,11.91
2022-09-11T05:12:26.268Z,12.03
2022-09-11T05:14:56.291Z,12.32
2022-09-11T05:17:26.327Z,12.24
2022-09-11T05:19:57.129Z,12.19
2022-09-11T05:22:27.594Z,12.28
2022-09-11T05:25:00.327Z,12.02
2022-09-11T05:27:32.561Z,12.17
2022-09-11T05:30:03.782Z,11.96
2022-09-11T05:32:33.934Z,12.06
2022-09-11T05:35:05.343Z,12.07
2022-09-11T05:37:35.495Z,11.96
2022-09-11T05:40:06.470Z,11.81
2022-09-11T05:42:36.418Z,11.76
2022-09-11T05:45:07.364Z,11.97
2022-09-11T05:47:37.444Z,12.01
2022-09-11T05:50:08.407Z,11.86
2022-09-11T05:52:39.387Z,11.44
2022-09-11T05:55:10.683Z,11.47
2022-09-11T05:57:41.727Z,11.70
2022-09-11T06:00:14.420Z,11.72
2022-09-11T06:02:55.387Z,11.93
2022-09-11T06:05:29.839Z,11.98
2022-09-11T06:08:02.628Z,10.84
2022-09-11T06:10:32.974Z,10.61
2022-09-11T06:13:03.934Z,10.58
2022-09-11T06:15:46.491Z,9.87
2022-09-11T06:18:18.860Z,9.43
2022-09-11T06:21:01.552Z,9.96
2022-09-11T06:23:38.399Z,10.55
2022-09-11T06:26:17.366Z,10.72
2022-09-11T06:28:50.147Z,10.94
2022-09-11T06:31:23.290Z,11.07
2022-09-11T06:33:55.843Z,11.05
2022-09-11T06:36:28.262Z,10.87
2022-09-11T06:39:00.717Z,11.04
2022-09-11T06:41:31.922Z,11.38
2022-09-11T06:44:08.182Z,10.88
2022-09-11T06:46:40.803Z,11.42
2022-09-11T06:49:12.959Z,11.34
2022-09-11T06:52:01.366Z,11.44
2022-09-11T06:54:33.395Z,9.95
2022-09-11T06:57:08.628Z,10.88
2022-09-11T06:59:39.817Z,11.37
2022-09-11T07:02:11.453Z,11.64
2022-09-11T07:04:41.675Z,11.85
2022-09-11T07:07:13.508Z,11.93
2022-09-11T07:09:44.587Z,12.17
2022-09-11T07:12:14.892Z,11.97
2022-09-11T07:14:47.567Z,11.89
2022-09-11T07:17:20.026Z,11.76
2022-09-11T07:19:55.922Z,11.61
2022-09-11T07:22:26.363Z,11.65
2022-09-11T07:24:56.943Z,11.79
2022-09-11T07:27:29.303Z,12.06
2022-09-11T07:30:02.598Z,12.04
2022-09-11T07:32:36.047Z,11.89
2022-09-11T07:35:07.388Z,11.54
2022-09-11T07:37:39.837Z,11.40
2022-09-11T07:40:10.529Z,11.21
2022-09-11T07:42:40.587Z,11.70
2022-09-11T07:45:11.502Z,12.03
2022-09-11T07:47:42.832Z,11.89
2022-09-11T07:50:12.901Z,11.98
2022-09-11T07:52:46.364Z,11.56
2022-09-11T07:55:16.811Z,11.71
2022-09-11T07:57:48.274Z,11.44
2022-09-11T08:00:18.453Z,11.52
2022-09-11T08:02:54.824Z,11.04
2022-09-11T08:05:34.039Z,10.91
2022-09-11T08:08:05.778Z,10.78
2022-09-11T08:10:40.890Z,11.13
2022-09-11T08:13:12.755Z,11.21
2022-09-11T08:15:52.083Z,11.22
2022-09-11T08:18:23.031Z,10.96
2022-09-11T08:20:53.119Z,10.77
2022-09-11T08:23:23.565Z,10.27
2022-09-11T08:25:55.403Z,10.21
2022-09-11T08:28:29.030Z,9.52
2022-09-11T08:31:06.582Z,9.43
2022-09-11T08:33:38.083Z,9.38
2022-09-11T08:36:10.944Z,9.37
2022-09-11T08:38:41.742Z,9.33
2022-09-11T08:41:20.741Z,9.41
2022-09-11T08:44:25.292Z,9.38
2022-09-11T08:47:09.179Z,9.41
2022-09-11T08:49:52.827Z,9.23
2022-09-11T08:52:24.887Z,9.51
2022-09-11T08:55:00.622Z,10.11
2022-09-11T08:57:48.310Z,10.13
2022-09-11T09:00:22.936Z,9.79
2022-09-11T09:03:09.863Z,9.47
2022-09-11T09:05:57.867Z,9.27
2022-09-11T09:09:02.381Z,9.62
2022-09-11T09:11:46.704Z,8.78
2022-09-11T09:14:58.098Z,8.65
2022-09-11T09:17:54.999Z,9.93
2022-09-11T09:20:33.155Z,10.26
2022-09-11T09:23:09.518Z,10.53
2022-09-11T09:25:44.069Z,10.38
2022-09-11T09:28:44.489Z,10.25
2022-09-11T09:31:19.210Z,10.32
2022-09-11T09:34:07.082Z,10.75
2022-09-11T09:36:40.483Z,10.54
2022-09-11T09:39:17.471Z,10.59
2022-09-11T09:42:09.598Z,10.73
2022-09-11T09:45:02.167Z,9.44
2022-09-11T09:47:32.340Z,9.52
2022-09-11T09:50:02.273Z,9.46
2022-09-11T09:52:37.191Z,9.59
2022-09-11T09:55:16.635Z,9.51
2022-09-11T09:57:47.280Z,9.93
2022-09-11T10:00:23.448Z,9.58
2022-09-11T10:02:57.643Z,9.51
2022-09-11T10:05:34.285Z,9.64
2022-09-11T10:08:07.504Z,9.83
2022-09-11T10:10:39.311Z,10.37
2022-09-11T10:13:19.585Z,10.73
2022-09-11T10:15:54.836Z,11.17
2022-09-11T10:18:34.299Z,11.57
2022-09-11T10:21:23.916Z,11.54
2022-09-11T10:24:02.185Z,11.98
2022-09-11T10:26:36.690Z,12.40
2022-09-11T10:29:13.055Z,12.61
2022-09-11T10:31:51.387Z,12.49
2022-09-11T10:34:24.110Z,12.36
2022-09-11T10:37:01.794Z,12.90
2022-09-11T10:39:36.351Z,13.63
2022-09-11T10:42:18.097Z,14.00
2022-09-11T10:44:51.027Z,14.35
2022-09-11T10:47:27.026Z,14.91
2022-09-11T10:50:23.783Z,15.44
2022-09-11T10:52:59.887Z,16.00
2022-09-11T10:55:36.605Z,16.41
2022-09-11T10:58:23.175Z,16.92
2022-09-11T11:00:54.079Z,16.54
2022-09-11T11:03:27.030Z,15.98
2022-09-11T11:06:09.223Z,15.85
2022-09-11T11:09:09.630Z,16.04
2022-09-11T11:12:00.750Z,16.36
2022-09-11T11:14:38.934Z,16.47
2022-09-11T11:17:30.427Z,16.86
2022-09-11T11:20:08.504Z,17.40
2022-09-11T11:23:06.962Z,18.04
2022-09-11T11:25:55.270Z,18.52
2022-09-11T11:28:59.674Z,18.20
2022-09-11T11:31:45.335Z,17.11
2022-09-11T11:34:49.705Z,17.51
2022-09-11T11:37:26.418Z,17.90
2022-09-11T11:40:36.279Z,17.55
2022-09-11T11:43:18.651Z,18.14
2022-09-11T11:45:58.953Z,19.07
2022-09-11T11:48:42.477Z,20.06
2022-09-11T11:51:15.302Z,20.52
2022-09-11T11:53:50.838Z,21.09
2022-09-11T11:56:35.627Z,21.57
2022-09-11T11:59:19.338Z,22.25
2022-09-11T12:02:37.729Z,22.92
2022-09-11T12:05:18.340Z,23.22
2022-09-11T12:07:49.345Z,23.39
2022-09-11T12:10:28.419Z,23.88
2022-09-11T12:13:03.096Z,24.10
2022-09-11T12:15:35.731Z,24.50
2022-09-11T12:18:13.119Z,24.72
2022-09-11T12:20:47.450Z,24.89
2022-09-11T12:23:34.980Z,23.40
2022-09-11T12:26:10.758Z,23.88
2022-09-11T12:28:42.140Z,24.51
2022-09-11T12:31:14.997Z,24.14
2022-09-11T12:33:51.613Z,23.79
2022-09-11T12:36:27.455Z,23.89
2022-09-11T12:39:32.300Z,25.51
2022-09-11T12:42:26.988Z,26.00
2022-09-11T12:45:05.883Z,25.18
2022-09-11T12:47:43.794Z,24.18
2022-09-11T12:50:15.461Z,24.17
2022-09-11T12:52:45.385Z,24.48
2022-09-11T12:55:31.409Z,24.23
2022-09-11T12:58:04.920Z,23.61
2022-09-11T13:00:40.224Z,24.23
2022-09-11T13:03:21.274Z,23.52
2022-09-11T13:06:14.905Z,24.34
2022-09-11T13:09:01.134Z,23.71
2022-09-11T13:11:45.988Z,24.42
2022-09-11T13:14:29.621Z,24.42
2022-09-11T13:17:26.840Z,25.08
2022-09-11T13:20:16.442Z,25.08
2022-09-11T13:22:48.916Z,26.51
2022-09-11T13:25:23.902Z,25.51
2022-09-11T13:28:02.691Z,24.47
2022-09-11T13:30:32.704Z,25.86
2022-09-11T13:33:09.905Z,26.89
2022-09-11T13:35:41.446Z,25.67
2022-09-11T13:38:25.358Z,26.50
2022-09-11T13:41:14.827Z,25.01
2022-09-11T13:43:50.095Z,24.43
2022-09-11T13:46:33.663Z,24.27
2022-09-11T13:49:13.109Z,24.52
2022-09-11T13:51:50.035Z,24.13
2022-09-11T13:54:31.303Z,26.08
2022-09-11T13:57:04.190Z,25.86
2022-09-11T13:59:48.217Z,26.18
2022-09-11T14:02:36.559Z,24.81
2022-09-11T14:05:27.806Z,24.23
2022-09-11T14:07:57.754Z,24.28
2022-09-11T14:10:48.226Z,25.39
2022-09-11T14:13:47.548Z,27.01
2022-09-11T14:16:18.028Z,28.36
2022-09-11T14:19:03.613Z,27.85
2022-09-11T14:21:35.532Z,27.18
2022-09-11T14:24:25.667Z,27.50
2022-09-11T14:26:59.696Z,26.59
2022-09-11T14:29:32.761Z,27.03
2022-09-11T14:32:24.451Z,27.95
2022-09-11T14:34:54.915Z,28.06
2022-09-11T14:37:27.426Z,28.41
2022-09-11T14:40:05.791Z,29.21
2022-09-11T14:42:38.118Z,27.21
2022-09-11T14:45:19.231Z,26.29
2022-09-11T14:47:49.453Z,24.84
2022-09-11T14:50:20.026Z,24.77
2022-09-11T14:52:50.108Z,26.41
2022-09-11T14:55:21.915Z,27.14
2022-09-11T14:57:51.986Z,25.67
2022-09-11T15:00:22.794Z,27.51
2022-09-11T15:02:53.273Z,27.99
2022-09-11T15:05:25.785Z,27.02
2022-09-11T15:07:55.859Z,28.00
2022-09-11T15:10:26.902Z,29.01
2022-09-11T15:12:59.793Z,27.05
2022-09-11T15:15:32.597Z,25.98
2022-09-11T15:18:02.810Z,25.34
2022-09-11T15:20:33.366Z,25.48
2022-09-11T15:23:04.205Z,25.60
2022-09-11T15:25:34.848Z,24.44
2022-09-11T15:28:05.169Z,24.18
2022-09-11T15:30:35.636Z,23.96
2022-09-11T15:33:06.414Z,23.39
2022-09-11T15:35:36.981Z,23.87
2022-09-11T15:38:07.471Z,23.56
2022-09-11T15:40:37.954Z,23.69
2022-09-11T15:43:08.037Z,24.12
2022-09-11T15:45:44.604Z,24.32
2022-09-11T15:48:18.531Z,24.90
2022-09-11T15:51:01.497Z,24.62
2022-09-11T15:53:32.483Z,23.53
2022-09-11T15:56:08.101Z,23.71
2022-09-11T15:58:40.967Z,23.87
2022-09-11T16:01:22.568Z,24.34
2022-09-11T16:03:58.026Z,24.38
2022-09-11T16:06:31.846Z,23.40
2022-09-11T16:09:05.307Z,24.23
2022-09-11T16:11:37.815Z,24.94
2022-09-11T16:14:08.157Z,23.35
2022-09-11T16:16:38.797Z,23.40
2022-09-11T16:19:08.824Z,23.53
2022-09-11T16:21:39.307Z,24.45
2022-09-11T16:24:09.316Z,23.79
2022-09-11T16:26:40.014Z,24.38
2022-09-11T16:29:12.726Z,24.70
2022-09-11T16:31:44.022Z,24.52
2022-09-11T16:34:14.361Z,24.51
2022-09-11T16:36:45.494Z,24.23
2022-09-11T16:39:20.166Z,24.16
2022-09-11T16:41:50.947Z,24.83
2022-09-11T16:44:21.076Z,25.13
2022-09-11T16:46:51.534Z,24.61
2022-09-11T16:49:21.879Z,24.54
2022-09-11T16:51:53.178Z,24.45
2022-09-11T16:54:23.242Z,24.89
2022-09-11T16:56:53.004Z,24.00
2022-09-11T16:59:23.958Z,23.64
2022-09-11T17:01:58.433Z,23.06
2022-09-11T17:04:29.595Z,23.36
2022-09-11T17:06:59.879Z,22.97
2022-09-11T17:09:34.992Z,24.07
2022-09-11T17:12:05.046Z,24.39
2022-09-11T17:14:37.735Z,25.88
2022-09-11T17:17:08.138Z,25.66
2022-09-11T17:19:38.696Z,24.88
2022-09-11T17:22:09.770Z,24.21
2022-09-11T17:24:40.766Z,24.30
2022-09-11T17:27:10.866Z,24.83
2022-09-11T17:29:44.452Z,25.18
2022-09-11T17:32:28.175Z,25.85
2022-09-11T17:35:00.000Z,25.36
2022-09-11T17:37:30.342Z,24.73
2022-09-11T17:40:00.389Z,24.53
2022-09-11T17:42:31.398Z,24.88
2022-09-11T17:45:02.615Z,24.15
2022-09-11T17:47:34.763Z,24.46
2022-09-11T17:50:05.056Z,24.21
2022-09-11T17:52:37.911Z,25.10
2022-09-11T17:55:10.398Z,25.06
2022-09-11T17:57:41.841Z,25.11
2022-09-11T18:00:12.715Z,25.05
2022-09-11T18:02:43.702Z,24.58
2022-09-11T18:05:13.759Z,24.42
2022-09-11T18:07:44.137Z,22.90
2022-09-11T18:10:14.010Z,23.08
2022-09-11T18:12:44.373Z,23.04
2022-09-11T18:15:15.101Z,23.19
2022-09-11T18:17:48.839Z,24.12
2022-09-11T18:20:18.942Z,23.51
2022-09-11T18:22:49.753Z,23.77
2022-09-11T18:25:24.341Z,23.50
2022-09-11T18:27:55.886Z,23.71
2022-09-11T18:30:26.491Z,22.90
2022-09-11T18:32:56.787Z,22.08
2022-09-11T18:35:26.311Z,21.50
2022-09-11T18:37:56.163Z,21.29
2022-09-11T18:40:26.641Z,21.86
2022-09-11T18:42:56.822Z,22.69
2022-09-11T18:45:30.063Z,22.32
2022-09-11T18:48:01.939Z,22.47
2022-09-11T18:50:32.610Z,22.46
2022-09-11T18:53:02.555Z,22.60
2022-09-11T18:55:32.920Z,22.01
2022-09-11T18:58:02.854Z,21.14
2022-09-11T19:00:33.601Z,20.74
2022-09-11T19:03:03.598Z,20.06
2022-09-11T19:05:33.934Z,19.67
2022-09-11T19:08:04.885Z,19.36
2022-09-11T19:10:36.126Z,19.82
2022-09-11T19:13:06.126Z,20.85
2022-09-11T19:15:36.537Z,21.22
2022-09-11T19:18:06.779Z,22.14
2022-09-11T19:20:37.331Z,22.67
2022-09-11T19:23:07.275Z,22.19
2022-09-11T19:25:37.247Z,21.76
2022-09-11T19:28:10.103Z,22.33
2022-09-11T19:30:43.058Z,21.91
2022-09-11T19:33:14.006Z,21.64
2022-09-11T19:35:43.966Z,21.68
2022-09-11T19:38:14.261Z,21.58
2022-09-11T19:40:44.101Z,21.31
2022-09-11T19:43:17.733Z,20.80
2022-09-11T19:45:47.767Z,20.09
2022-09-11T19:48:19.007Z,20.03
2022-09-11T19:50:49.186Z,19.97
2022-09-11T19:53:19.622Z,19.81
2022-09-11T19:55:56.191Z,19.72
2022-09-11T19:58:29.857Z,19.74
2022-09-11T20:01:00.523Z,19.82
2022-09-11T20:03:31.658Z,19.74
2022-09-11T20:06:01.671Z,20.02
2022-09-11T20:08:32.160Z,19.46
2022-09-11T20:11:05.517Z,19.15
2022-09-11T20:13:38.934Z,19.08
2022-09-11T20:16:17.802Z,18.69
2022-09-11T20:18:48.614Z,18.34
2022-09-11T20:21:18.904Z,18.09
2022-09-11T20:23:49.344Z,18.01
2022-09-11T20:26:24.870Z,17.69
2022-09-11T20:28:57.717Z,17.70
2022-09-11T20:31:33.294Z,17.60
2022-09-11T20:34:04.207Z,17.59
2022-09-11T20:36:34.420Z,17.06
2022-09-11T20:39:05.297Z,17.14
2022-09-11T20:41:36.915Z,17.16
2022-09-11T20:44:07.299Z,17.35
2022-09-11T20:46:37.179Z,17.52
2022-09-11T20:49:07.707Z,17.46
2022-09-11T20:51:38.154Z,17.69
2022-09-11T20:54:08.567Z,17.91
2022-09-11T20:56:38.602Z,18.18
2022-09-11T20:59:09.215Z,18.01
2022-09-11T21:01:39.286Z,18.40
2022-09-11T21:04:09.670Z,18.77
2022-09-11T21:06:41.635Z,18.93
2022-09-11T21:09:13.383Z,18.86
2022-09-11T21:11:44.071Z,18.51
2022-09-11T21:14:16.547Z,18.50
2022-09-11T21:16:46.544Z,18.37
2022-09-11T21:19:16.454Z,18.13
2022-09-11T21:21:49.305Z,17.78
2022-09-11T21:24:19.770Z,17.45
2022-09-11T21:26:49.803Z,17.43
2022-09-11T21:29:19.768Z,17.35
2022-09-11T21:31:49.538Z,17.48
2022-09-11T21:34:19.746Z,17.68
2022-09-11T21:36:50.488Z,17.76
2022-09-11T21:39:21.558Z,17.81
2022-09-11T21:41:52.415Z,17.83
2022-09-11T21:44:23.330Z,17.99
2022-09-11T21:46:53.628Z,17.99
2022-09-11T21:49:23.682Z,17.98
2022-09-11T21:51:53.567Z,17.69
2022-09-11T21:54:23.702Z,17.71
2022-09-11T21:56:54.029Z,17.23
2022-09-11T21:59:24.569Z,17.40
2022-09-11T22:01:55.058Z,17.15
2022-09-11T22:04:27.681Z,16.99
2022-09-11T22:06:58.010Z,16.53
2022-09-11T22:09:29.837Z,16.33
2022-09-11T22:12:00.231Z,16.47
2022-09-11T22:14:30.107Z,16.29
2022-09-11T22:16:59.894Z,16.36
2022-09-11T22:19:30.057Z,16.73
2022-09-11T22:21:59.579Z,16.51
2022-09-11T22:24:29.931Z,16.18
2022-09-11T22:26:59.915Z,16.09
2022-09-11T22:29:30.278Z,15.69
2022-09-11T22:32:00.043Z,15.68
2022-09-11T22:34:30.532Z,15.36
2022-09-11T22:37:00.444Z,15.32
2022-09-11T22:39:32.914Z,15.44
2022-09-11T22:42:02.853Z,15.26
2022-09-11T22:44:33.244Z,15.28
2022-09-11T22:47:03.184Z,15.64
2022-09-11T22:49:33.063Z,15.67
2022-09-11T22:52:02.936Z,15.52
2022-09-11T22:54:33.054Z,15.66
2022-09-11T22:57:02.875Z,15.86
2022-09-11T22:59:32.551Z,15.62
2022-09-11T23:02:02.655Z,15.69
2022-09-11T23:04:33.053Z,16.01
2022-09-11T23:07:18.893Z,16.17
2022-09-11T23:09:50.821Z,15.99
2022-09-11T23:12:22.030Z,15.57
2022-09-11T23:14:52.597Z,15.80
2022-09-11T23:17:22.591Z,15.62
2022-09-11T23:19:52.971Z,15.66
2022-09-11T23:22:23.343Z,15.63
2022-09-11T23:24:53.828Z,15.40
2022-09-11T23:27:23.892Z,15.16
2022-09-11T23:29:54.241Z,15.72
2022-09-11T23:32:23.999Z,16.27
2022-09-11T23:34:54.425Z,16.17
2022-09-11T23:37:24.637Z,16.16
2022-09-11T23:39:55.149Z,16.18
2022-09-11T23:42:25.067Z,16.47
2022-09-11T23:44:55.861Z,16.07
2022-09-11T23:47:25.813Z,15.87
2022-09-11T23:49:55.771Z,15.74
2022-09-11T23:52:25.916Z,16.06
2022-09-11T23:54:56.366Z,16.03
2022-09-11T23:57:26.608Z,15.56
2022-09-11T23:59:57.027Z,15.12
